sensor_id;sensor_type;location;lat;lon;timestamp;P1;durP1;ratioP1;P2;durP2;ratioP2
34978;SDS011;21185;50.978;13.720;2024-01-27T00:03:13;4.78;;;1.15;;
34978;SDS011;21185;50.978;13.720;2024-01-27T00:08:15;4.57;;;1.73;;
34978;SDS011;21185;50.978;13.720;2024-01-27T00:13:17;2.05;;;1.10;;
34978;SDS011;21185;50.978;13.720;2024-01-27T00:18:19;4.05;;;1.65;;
34978;SDS011;21185;50.978;13.720;2024-01-27T00:23:21;7.68;;;2.10;;
34978;SDS011;21185;50.978;13.720;2024-01-27T00:28:23;5.55;;;1.83;;
34978;SDS011;21185;50.978;13.720;2024-01-27T00:33:25;2.88;;;1.58;;
34978;SDS011;21185;50.978;13.720;2024-01-27T00:38:30;1.17;;;0.93;;
34978;SDS011;21185;50.978;13.720;2024-01-27T00:43:32;4.40;;;1.08;;
34978;SDS011;21185;50.978;13.720;2024-01-27T00:48:34;2.67;;;1.13;;
34978;SDS011;21185;50.978;13.720;2024-01-27T00:53:36;2.45;;;1.30;;
34978;SDS011;21185;50.978;13.720;2024-01-27T00:58:39;5.13;;;1.60;;
34978;SDS011;21185;50.978;13.720;2024-01-27T01:03:41;2.63;;;1.20;;
34978;SDS011;21185;50.978;13.720;2024-01-27T01:08:44;4.35;;;1.08;;
34978;SDS011;21185;50.978;13.720;2024-01-27T01:13:46;5.85;;;1.13;;
34978;SDS011;21185;50.978;13.720;2024-01-27T01:18:48;7.93;;;1.23;;
34978;SDS011;21185;50.978;13.720;2024-01-27T01:23:50;1.85;;;1.00;;
34978;SDS011;21185;50.978;13.720;2024-01-27T01:28:52;8.32;;;1.38;;
34978;SDS011;21185;50.978;13.720;2024-01-27T01:33:55;6.70;;;1.33;;
34978;SDS011;21185;50.978;13.720;2024-01-27T01:38:57;4.40;;;1.17;;
34978;SDS011;21185;50.978;13.720;2024-01-27T01:43:59;5.65;;;1.33;;
34978;SDS011;21185;50.978;13.720;2024-01-27T01:49:01;2.17;;;1.75;;
34978;SDS011;21185;50.978;13.720;2024-01-27T01:54:04;2.97;;;1.48;;
34978;SDS011;21185;50.978;13.720;2024-01-27T01:59:07;3.88;;;1.00;;
34978;SDS011;21185;50.978;13.720;2024-01-27T02:04:09;4.45;;;0.98;;
34978;SDS011;21185;50.978;13.720;2024-01-27T02:09:19;6.75;;;1.52;;
34978;SDS011;21185;50.978;13.720;2024-01-27T02:14:21;2.78;;;0.98;;
34978;SDS011;21185;50.978;13.720;2024-01-27T02:19:27;7.13;;;2.38;;
34978;SDS011;21185;50.978;13.720;2024-01-27T02:24:29;3.35;;;1.65;;
34978;SDS011;21185;50.978;13.720;2024-01-27T02:29:37;4.45;;;1.10;;
34978;SDS011;21185;50.978;13.720;2024-01-27T02:39:41;4.28;;;1.90;;
34978;SDS011;21185;50.978;13.720;2024-01-27T02:44:43;2.03;;;1.10;;
34978;SDS011;21185;50.978;13.720;2024-01-27T02:49:45;14.63;;;5.35;;
34978;SDS011;21185;50.978;13.720;2024-01-27T02:54:47;9.45;;;1.15;;
34978;SDS011;21185;50.978;13.720;2024-01-27T02:59:49;6.55;;;2.80;;
34978;SDS011;21185;50.978;13.720;2024-01-27T03:04:51;4.60;;;1.50;;
34978;SDS011;21185;50.978;13.720;2024-01-27T03:09:53;7.65;;;1.77;;
34978;SDS011;21185;50.978;13.720;2024-01-27T03:14:59;5.13;;;1.67;;
34978;SDS011;21185;50.978;13.720;2024-01-27T03:20:01;5.07;;;1.77;;
34978;SDS011;21185;50.978;13.720;2024-01-27T03:25:03;1.63;;;0.90;;
34978;SDS011;21185;50.978;13.720;2024-01-27T03:30:06;1.67;;;1.08;;
34978;SDS011;21185;50.978;13.720;2024-01-27T03:35:09;7.13;;;1.58;;
34978;SDS011;21185;50.978;13.720;2024-01-27T03:40:11;3.45;;;1.25;;
34978;SDS011;21185;50.978;13.720;2024-01-27T03:45:14;3.35;;;1.63;;
34978;SDS011;21185;50.978;13.720;2024-01-27T03:50:16;10.82;;;2.47;;
34978;SDS011;21185;50.978;13.720;2024-01-27T03:55:18;6.47;;;1.02;;
34978;SDS011;21185;50.978;13.720;2024-01-27T04:00:20;5.57;;;0.80;;
34978;SDS011;21185;50.978;13.720;2024-01-27T04:05:23;13.48;;;4.93;;
34978;SDS011;21185;50.978;13.720;2024-01-27T04:10:25;14.27;;;3.67;;
34978;SDS011;21185;50.978;13.720;2024-01-27T04:15:27;12.45;;;1.75;;
34978;SDS011;21185;50.978;13.720;2024-01-27T04:20:31;4.22;;;1.67;;
34978;SDS011;21185;50.978;13.720;2024-01-27T04:25:33;8.45;;;1.45;;
34978;SDS011;21185;50.978;13.720;2024-01-27T04:30:35;8.57;;;1.63;;
34978;SDS011;21185;50.978;13.720;2024-01-27T04:35:37;6.22;;;1.85;;
34978;SDS011;21185;50.978;13.720;2024-01-27T04:40:39;4.82;;;1.20;;
34978;SDS011;21185;50.978;13.720;2024-01-27T04:45:42;9.00;;;1.30;;
34978;SDS011;21185;50.978;13.720;2024-01-27T04:50:44;3.90;;;1.35;;
34978;SDS011;21185;50.978;13.720;2024-01-27T04:55:47;1.10;;;0.50;;
34978;SDS011;21185;50.978;13.720;2024-01-27T05:00:49;8.55;;;3.67;;
34978;SDS011;21185;50.978;13.720;2024-01-27T05:05:51;2.83;;;1.23;;
34978;SDS011;21185;50.978;13.720;2024-01-27T05:10:54;4.15;;;1.23;;
34978;SDS011;21185;50.978;13.720;2024-01-27T05:15:59;6.85;;;1.90;;
34978;SDS011;21185;50.978;13.720;2024-01-27T05:21:01;24.00;;;3.15;;
34978;SDS011;21185;50.978;13.720;2024-01-27T05:26:06;2.92;;;1.35;;
34978;SDS011;21185;50.978;13.720;2024-01-27T05:31:08;7.47;;;1.90;;
34978;SDS011;21185;50.978;13.720;2024-01-27T05:36:11;8.98;;;1.45;;
34978;SDS011;21185;50.978;13.720;2024-01-27T05:41:13;8.57;;;1.98;;
34978;SDS011;21185;50.978;13.720;2024-01-27T05:46:15;8.90;;;1.50;;
34978;SDS011;21185;50.978;13.720;2024-01-27T05:51:17;14.18;;;3.55;;
34978;SDS011;21185;50.978;13.720;2024-01-27T05:56:19;1.20;;;0.95;;
34978;SDS011;21185;50.978;13.720;2024-01-27T06:01:24;8.80;;;1.95;;
34978;SDS011;21185;50.978;13.720;2024-01-27T06:06:27;8.15;;;1.38;;
34978;SDS011;21185;50.978;13.720;2024-01-27T06:11:29;1.02;;;0.77;;
34978;SDS011;21185;50.978;13.720;2024-01-27T06:16:31;6.90;;;1.30;;
34978;SDS011;21185;50.978;13.720;2024-01-27T06:21:34;2.78;;;1.48;;
34978;SDS011;21185;50.978;13.720;2024-01-27T06:26:36;9.07;;;2.50;;
34978;SDS011;21185;50.978;13.720;2024-01-27T06:31:39;7.03;;;1.80;;
34978;SDS011;21185;50.978;13.720;2024-01-27T06:36:41;12.75;;;1.85;;
34978;SDS011;21185;50.978;13.720;2024-01-27T06:41:43;4.13;;;1.70;;
34978;SDS011;21185;50.978;13.720;2024-01-27T06:46:45;4.18;;;0.88;;
34978;SDS011;21185;50.978;13.720;2024-01-27T06:51:51;9.43;;;2.10;;
34978;SDS011;21185;50.978;13.720;2024-01-27T06:56:53;8.30;;;3.10;;
34978;SDS011;21185;50.978;13.720;2024-01-27T07:01:55;11.90;;;1.85;;
34978;SDS011;21185;50.978;13.720;2024-01-27T07:06:58;3.63;;;1.48;;
34978;SDS011;21185;50.978;13.720;2024-01-27T07:12:00;3.75;;;1.70;;
34978;SDS011;21185;50.978;13.720;2024-01-27T07:17:03;6.25;;;1.05;;
34978;SDS011;21185;50.978;13.720;2024-01-27T07:22:06;4.70;;;1.67;;
34978;SDS011;21185;50.978;13.720;2024-01-27T07:27:11;11.45;;;2.15;;
34978;SDS011;21185;50.978;13.720;2024-01-27T07:32:14;19.13;;;4.40;;
34978;SDS011;21185;50.978;13.720;2024-01-27T07:37:16;9.20;;;3.03;;
34978;SDS011;21185;50.978;13.720;2024-01-27T07:42:18;3.75;;;1.30;;
34978;SDS011;21185;50.978;13.720;2024-01-27T07:47:21;5.05;;;1.30;;
34978;SDS011;21185;50.978;13.720;2024-01-27T07:52:23;5.80;;;2.25;;
34978;SDS011;21185;50.978;13.720;2024-01-27T07:57:25;3.60;;;1.30;;
34978;SDS011;21185;50.978;13.720;2024-01-27T08:02:27;10.45;;;2.10;;
34978;SDS011;21185;50.978;13.720;2024-01-27T08:07:29;8.90;;;2.78;;
34978;SDS011;21185;50.978;13.720;2024-01-27T08:12:32;5.65;;;1.85;;
34978;SDS011;21185;50.978;13.720;2024-01-27T08:17:35;11.45;;;1.85;;
34978;SDS011;21185;50.978;13.720;2024-01-27T08:22:37;4.20;;;2.30;;
34978;SDS011;21185;50.978;13.720;2024-01-27T08:27:40;6.55;;;2.15;;
34978;SDS011;21185;50.978;13.720;2024-01-27T08:32:42;8.85;;;2.08;;
34978;SDS011;21185;50.978;13.720;2024-01-27T08:37:44;8.05;;;2.22;;
34978;SDS011;21185;50.978;13.720;2024-01-27T08:42:48;6.82;;;2.42;;
34978;SDS011;21185;50.978;13.720;2024-01-27T08:47:50;6.10;;;1.67;;
34978;SDS011;21185;50.978;13.720;2024-01-27T08:52:52;3.55;;;1.40;;
34978;SDS011;21185;50.978;13.720;2024-01-27T08:57:55;5.18;;;2.45;;
34978;SDS011;21185;50.978;13.720;2024-01-27T09:03:01;8.02;;;1.83;;
34978;SDS011;21185;50.978;13.720;2024-01-27T09:08:04;5.43;;;1.80;;
34978;SDS011;21185;50.978;13.720;2024-01-27T09:13:09;16.17;;;4.30;;
34978;SDS011;21185;50.978;13.720;2024-01-27T09:18:11;10.65;;;2.22;;
34978;SDS011;21185;50.978;13.720;2024-01-27T09:23:14;5.05;;;1.70;;
34978;SDS011;21185;50.978;13.720;2024-01-27T09:28:16;7.97;;;2.25;;
34978;SDS011;21185;50.978;13.720;2024-01-27T09:33:22;10.35;;;2.22;;
34978;SDS011;21185;50.978;13.720;2024-01-27T09:38:25;10.85;;;2.30;;
34978;SDS011;21185;50.978;13.720;2024-01-27T09:43:27;7.05;;;1.73;;
34978;SDS011;21185;50.978;13.720;2024-01-27T09:48:30;19.60;;;2.40;;
34978;SDS011;21185;50.978;13.720;2024-01-27T09:53:35;8.98;;;3.58;;
34978;SDS011;21185;50.978;13.720;2024-01-27T09:58:38;8.80;;;1.95;;
34978;SDS011;21185;50.978;13.720;2024-01-27T10:03:41;7.18;;;2.05;;
34978;SDS011;21185;50.978;13.720;2024-01-27T10:08:48;4.93;;;1.67;;
34978;SDS011;21185;50.978;13.720;2024-01-27T10:13:56;3.72;;;1.77;;
34978;SDS011;21185;50.978;13.720;2024-01-27T10:19:02;9.75;;;2.58;;
34978;SDS011;21185;50.978;13.720;2024-01-27T10:24:06;9.20;;;2.15;;
34978;SDS011;21185;50.978;13.720;2024-01-27T10:29:09;15.90;;;2.28;;
34978;SDS011;21185;50.978;13.720;2024-01-27T10:34:12;3.88;;;1.75;;
34978;SDS011;21185;50.978;13.720;2024-01-27T10:39:18;18.85;;;3.40;;
34978;SDS011;21185;50.978;13.720;2024-01-27T10:44:23;2.58;;;1.00;;
34978;SDS011;21185;50.978;13.720;2024-01-27T10:49:27;7.22;;;2.10;;
34978;SDS011;21185;50.978;13.720;2024-01-27T10:54:34;5.07;;;2.53;;
34978;SDS011;21185;50.978;13.720;2024-01-27T10:59:38;8.27;;;1.85;;
34978;SDS011;21185;50.978;13.720;2024-01-27T11:04:43;7.05;;;2.10;;
34978;SDS011;21185;50.978;13.720;2024-01-27T11:09:46;7.80;;;1.88;;
34978;SDS011;21185;50.978;13.720;2024-01-27T11:14:52;7.35;;;2.03;;
34978;SDS011;21185;50.978;13.720;2024-01-27T11:19:56;12.57;;;2.08;;
34978;SDS011;21185;50.978;13.720;2024-01-27T11:25:08;13.32;;;2.90;;
34978;SDS011;21185;50.978;13.720;2024-01-27T11:35:48;11.93;;;1.40;;
34978;SDS011;21185;50.978;13.720;2024-01-27T11:41:02;5.82;;;1.60;;
34978;SDS011;21185;50.978;13.720;2024-01-27T11:46:04;10.05;;;2.65;;
34978;SDS011;21185;50.978;13.720;2024-01-27T11:51:08;14.40;;;2.10;;
34978;SDS011;21185;50.978;13.720;2024-01-27T11:56:13;10.60;;;2.20;;
34978;SDS011;21185;50.978;13.720;2024-01-27T12:01:15;4.55;;;1.75;;
34978;SDS011;21185;50.978;13.720;2024-01-27T12:06:18;8.30;;;2.63;;
34978;SDS011;21185;50.978;13.720;2024-01-27T12:11:22;13.40;;;3.42;;
34978;SDS011;21185;50.978;13.720;2024-01-27T12:16:26;10.00;;;1.88;;
34978;SDS011;21185;50.978;13.720;2024-01-27T12:21:28;9.55;;;2.78;;
34978;SDS011;21185;50.978;13.720;2024-01-27T12:26:31;11.13;;;2.35;;
34978;SDS011;21185;50.978;13.720;2024-01-27T12:31:33;9.30;;;2.40;;
34978;SDS011;21185;50.978;13.720;2024-01-27T12:36:39;8.68;;;1.83;;
34978;SDS011;21185;50.978;13.720;2024-01-27T12:41:45;4.60;;;1.75;;
34978;SDS011;21185;50.978;13.720;2024-01-27T12:46:47;5.53;;;1.50;;
34978;SDS011;21185;50.978;13.720;2024-01-27T12:51:49;11.57;;;1.45;;
34978;SDS011;21185;50.978;13.720;2024-01-27T12:56:53;8.07;;;1.98;;
34978;SDS011;21185;50.978;13.720;2024-01-27T13:01:55;7.95;;;2.88;;
34978;SDS011;21185;50.978;13.720;2024-01-27T13:06:58;11.10;;;1.95;;
34978;SDS011;21185;50.978;13.720;2024-01-27T13:12:00;7.68;;;2.53;;
34978;SDS011;21185;50.978;13.720;2024-01-27T13:17:03;10.65;;;1.98;;
34978;SDS011;21185;50.978;13.720;2024-01-27T13:22:05;7.47;;;2.28;;
34978;SDS011;21185;50.978;13.720;2024-01-27T13:27:10;5.80;;;1.67;;
34978;SDS011;21185;50.978;13.720;2024-01-27T13:32:14;18.25;;;2.83;;
34978;SDS011;21185;50.978;13.720;2024-01-27T13:37:16;7.93;;;1.73;;
34978;SDS011;21185;50.978;13.720;2024-01-27T13:42:19;8.13;;;2.38;;
34978;SDS011;21185;50.978;13.720;2024-01-27T13:47:21;8.93;;;2.00;;
34978;SDS011;21185;50.978;13.720;2024-01-27T13:52:24;5.57;;;2.20;;
34978;SDS011;21185;50.978;13.720;2024-01-27T13:57:26;8.32;;;2.03;;
34978;SDS011;21185;50.978;13.720;2024-01-27T14:02:28;1.83;;;1.05;;
34978;SDS011;21185;50.978;13.720;2024-01-27T14:07:33;5.03;;;1.45;;
34978;SDS011;21185;50.978;13.720;2024-01-27T14:12:37;8.63;;;2.10;;
34978;SDS011;21185;50.978;13.720;2024-01-27T14:17:40;4.15;;;1.40;;
34978;SDS011;21185;50.978;13.720;2024-01-27T14:22:42;7.65;;;1.85;;
34978;SDS011;21185;50.978;13.720;2024-01-27T14:27:45;10.77;;;2.25;;
34978;SDS011;21185;50.978;13.720;2024-01-27T14:32:48;5.45;;;1.70;;
34978;SDS011;21185;50.978;13.720;2024-01-27T14:37:51;2.65;;;1.02;;
34978;SDS011;21185;50.978;13.720;2024-01-27T14:42:55;9.52;;;2.95;;
34978;SDS011;21185;50.978;13.720;2024-01-27T14:47:58;6.05;;;1.73;;
34978;SDS011;21185;50.978;13.720;2024-01-27T14:53:04;3.92;;;1.80;;
34978;SDS011;21185;50.978;13.720;2024-01-27T14:58:08;7.75;;;1.60;;
34978;SDS011;21185;50.978;13.720;2024-01-27T15:03:10;10.82;;;3.00;;
34978;SDS011;21185;50.978;13.720;2024-01-27T15:08:15;5.63;;;1.65;;
34978;SDS011;21185;50.978;13.720;2024-01-27T15:13:19;8.43;;;1.50;;
34978;SDS011;21185;50.978;13.720;2024-01-27T15:18:25;11.32;;;1.80;;
34978;SDS011;21185;50.978;13.720;2024-01-27T15:23:28;7.05;;;2.22;;
34978;SDS011;21185;50.978;13.720;2024-01-27T15:28:31;16.98;;;3.42;;
34978;SDS011;21185;50.978;13.720;2024-01-27T15:33:33;4.18;;;1.70;;
34978;SDS011;21185;50.978;13.720;2024-01-27T15:38:37;10.38;;;1.73;;
34978;SDS011;21185;50.978;13.720;2024-01-27T15:43:39;5.43;;;2.00;;
34978;SDS011;21185;50.978;13.720;2024-01-27T15:48:42;11.63;;;2.40;;
34978;SDS011;21185;50.978;13.720;2024-01-27T15:53:45;10.43;;;2.80;;
34978;SDS011;21185;50.978;13.720;2024-01-27T15:58:47;6.80;;;1.75;;
34978;SDS011;21185;50.978;13.720;2024-01-27T16:03:49;12.68;;;1.75;;
34978;SDS011;21185;50.978;13.720;2024-01-27T16:08:53;3.50;;;2.03;;
34978;SDS011;21185;50.978;13.720;2024-01-27T16:13:55;4.35;;;1.63;;
34978;SDS011;21185;50.978;13.720;2024-01-27T16:18:57;7.60;;;2.17;;
34978;SDS011;21185;50.978;13.720;2024-01-27T16:24:00;10.32;;;3.28;;
34978;SDS011;21185;50.978;13.720;2024-01-27T16:29:02;5.38;;;2.08;;
34978;SDS011;21185;50.978;13.720;2024-01-27T16:34:05;5.80;;;2.83;;
34978;SDS011;21185;50.978;13.720;2024-01-27T16:39:07;9.60;;;3.20;;
34978;SDS011;21185;50.978;13.720;2024-01-27T16:44:12;9.35;;;2.58;;
34978;SDS011;21185;50.978;13.720;2024-01-27T16:49:14;9.10;;;2.50;;
34978;SDS011;21185;50.978;13.720;2024-01-27T16:54:18;8.40;;;4.90;;
34978;SDS011;21185;50.978;13.720;2024-01-27T16:59:20;7.28;;;3.83;;
34978;SDS011;21185;50.978;13.720;2024-01-27T17:04:22;11.30;;;2.70;;
34978;SDS011;21185;50.978;13.720;2024-01-27T17:09:31;8.48;;;2.20;;
34978;SDS011;21185;50.978;13.720;2024-01-27T17:14:34;7.60;;;2.67;;
34978;SDS011;21185;50.978;13.720;2024-01-27T17:19:36;6.57;;;3.13;;
34978;SDS011;21185;50.978;13.720;2024-01-27T17:24:38;7.13;;;2.17;;
34978;SDS011;21185;50.978;13.720;2024-01-27T17:29:40;4.60;;;1.98;;
34978;SDS011;21185;50.978;13.720;2024-01-27T17:34:42;19.80;;;3.15;;
34978;SDS011;21185;50.978;13.720;2024-01-27T17:39:45;13.30;;;3.10;;
34978;SDS011;21185;50.978;13.720;2024-01-27T17:44:47;11.48;;;2.72;;
34978;SDS011;21185;50.978;13.720;2024-01-27T17:49:49;5.95;;;2.17;;
34978;SDS011;21185;50.978;13.720;2024-01-27T17:54:51;8.98;;;2.15;;
34978;SDS011;21185;50.978;13.720;2024-01-27T17:59:54;15.70;;;2.33;;
34978;SDS011;21185;50.978;13.720;2024-01-27T18:04:57;22.48;;;3.33;;
34978;SDS011;21185;50.978;13.720;2024-01-27T18:09:59;7.45;;;2.10;;
34978;SDS011;21185;50.978;13.720;2024-01-27T18:15:02;6.85;;;1.88;;
34978;SDS011;21185;50.978;13.720;2024-01-27T18:20:05;6.97;;;1.95;;
34978;SDS011;21185;50.978;13.720;2024-01-27T18:25:08;5.13;;;2.10;;
34978;SDS011;21185;50.978;13.720;2024-01-27T18:30:11;6.10;;;2.05;;
34978;SDS011;21185;50.978;13.720;2024-01-27T18:35:15;7.65;;;2.30;;
34978;SDS011;21185;50.978;13.720;2024-01-27T18:40:17;12.70;;;1.85;;
34978;SDS011;21185;50.978;13.720;2024-01-27T18:45:19;7.03;;;1.85;;
34978;SDS011;21185;50.978;13.720;2024-01-27T18:50:21;7.03;;;2.63;;
34978;SDS011;21185;50.978;13.720;2024-01-27T18:55:23;6.45;;;2.63;;
34978;SDS011;21185;50.978;13.720;2024-01-27T19:00:29;10.95;;;2.58;;
34978;SDS011;21185;50.978;13.720;2024-01-27T19:05:36;4.50;;;2.63;;
34978;SDS011;21185;50.978;13.720;2024-01-27T19:10:38;8.85;;;3.15;;
34978;SDS011;21185;50.978;13.720;2024-01-27T19:15:44;6.55;;;2.28;;
34978;SDS011;21185;50.978;13.720;2024-01-27T19:20:46;6.50;;;2.08;;
34978;SDS011;21185;50.978;13.720;2024-01-27T19:25:48;6.25;;;2.45;;
34978;SDS011;21185;50.978;13.720;2024-01-27T19:30:50;17.08;;;3.67;;
34978;SDS011;21185;50.978;13.720;2024-01-27T19:35:53;7.90;;;2.63;;
34978;SDS011;21185;50.978;13.720;2024-01-27T19:40:55;10.50;;;3.63;;
34978;SDS011;21185;50.978;13.720;2024-01-27T19:46:16;13.60;;;2.72;;
34978;SDS011;21185;50.978;13.720;2024-01-27T19:51:18;7.18;;;2.97;;
34978;SDS011;21185;50.978;13.720;2024-01-27T19:56:20;10.25;;;2.97;;
34978;SDS011;21185;50.978;13.720;2024-01-27T20:01:22;8.75;;;2.20;;
34978;SDS011;21185;50.978;13.720;2024-01-27T20:06:25;10.50;;;2.15;;
34978;SDS011;21185;50.978;13.720;2024-01-27T20:11:27;7.40;;;2.85;;
34978;SDS011;21185;50.978;13.720;2024-01-27T20:16:29;9.45;;;2.50;;
34978;SDS011;21185;50.978;13.720;2024-01-27T20:21:31;5.70;;;2.15;;
34978;SDS011;21185;50.978;13.720;2024-01-27T20:26:33;6.03;;;2.15;;
34978;SDS011;21185;50.978;13.720;2024-01-27T20:31:35;9.55;;;2.63;;
34978;SDS011;21185;50.978;13.720;2024-01-27T20:36:37;6.47;;;2.60;;
34978;SDS011;21185;50.978;13.720;2024-01-27T20:41:39;8.65;;;1.90;;
34978;SDS011;21185;50.978;13.720;2024-01-27T20:46:41;12.07;;;3.80;;
34978;SDS011;21185;50.978;13.720;2024-01-27T20:51:44;5.43;;;2.83;;
34978;SDS011;21185;50.978;13.720;2024-01-27T20:56:50;17.27;;;2.85;;
34978;SDS011;21185;50.978;13.720;2024-01-27T21:01:52;7.68;;;3.83;;
34978;SDS011;21185;50.978;13.720;2024-01-27T21:06:54;8.30;;;2.95;;
34978;SDS011;21185;50.978;13.720;2024-01-27T21:11:57;8.00;;;4.15;;
34978;SDS011;21185;50.978;13.720;2024-01-27T21:16:59;15.60;;;4.88;;
34978;SDS011;21185;50.978;13.720;2024-01-27T21:22:01;15.80;;;4.82;;
34978;SDS011;21185;50.978;13.720;2024-01-27T21:27:03;10.52;;;4.43;;
34978;SDS011;21185;50.978;13.720;2024-01-27T21:32:07;18.70;;;4.65;;
34978;SDS011;21185;50.978;13.720;2024-01-27T21:37:08;12.68;;;4.90;;
34978;SDS011;21185;50.978;13.720;2024-01-27T21:42:10;11.48;;;4.05;;
34978;SDS011;21185;50.978;13.720;2024-01-27T21:47:13;19.17;;;6.00;;
34978;SDS011;21185;50.978;13.720;2024-01-27T21:52:16;13.32;;;5.75;;
34978;SDS011;21185;50.978;13.720;2024-01-27T21:57:19;18.17;;;5.75;;
34978;SDS011;21185;50.978;13.720;2024-01-27T22:02:20;16.23;;;5.18;;
34978;SDS011;21185;50.978;13.720;2024-01-27T22:07:22;17.63;;;6.05;;
34978;SDS011;21185;50.978;13.720;2024-01-27T22:12:25;11.57;;;5.70;;
34978;SDS011;21185;50.978;13.720;2024-01-27T22:17:27;14.95;;;6.85;;
34978;SDS011;21185;50.978;13.720;2024-01-27T22:22:29;17.15;;;5.45;;
34978;SDS011;21185;50.978;13.720;2024-01-27T22:27:31;13.70;;;5.40;;
34978;SDS011;21185;50.978;13.720;2024-01-27T22:32:34;17.92;;;4.10;;
34978;SDS011;21185;50.978;13.720;2024-01-27T22:37:37;8.80;;;4.10;;
34978;SDS011;21185;50.978;13.720;2024-01-27T22:42:39;27.83;;;6.15;;
34978;SDS011;21185;50.978;13.720;2024-01-27T22:47:42;15.57;;;4.53;;
34978;SDS011;21185;50.978;13.720;2024-01-27T22:52:44;12.15;;;4.75;;
34978;SDS011;21185;50.978;13.720;2024-01-27T22:57:46;15.40;;;3.97;;
34978;SDS011;21185;50.978;13.720;2024-01-27T23:02:48;14.20;;;4.32;;
34978;SDS011;21185;50.978;13.720;2024-01-27T23:07:50;13.25;;;3.95;;
34978;SDS011;21185;50.978;13.720;2024-01-27T23:12:52;7.80;;;3.40;;
34978;SDS011;21185;50.978;13.720;2024-01-27T23:17:54;12.07;;;5.15;;
34978;SDS011;21185;50.978;13.720;2024-01-27T23:22:57;7.10;;;2.92;;
34978;SDS011;21185;50.978;13.720;2024-01-27T23:27:59;9.85;;;4.75;;
34978;SDS011;21185;50.978;13.720;2024-01-27T23:33:03;20.38;;;4.75;;
34978;SDS011;21185;50.978;13.720;2024-01-27T23:38:07;12.20;;;3.45;;
34978;SDS011;21185;50.978;13.720;2024-01-27T23:43:09;13.23;;;2.83;;
34978;SDS011;21185;50.978;13.720;2024-01-27T23:48:11;7.78;;;2.75;;
34978;SDS011;21185;50.978;13.720;2024-01-27T23:53:15;8.10;;;3.00;;
